Flight Track Log - Related Links

Times and Time Zones

All times are in EDT time to prevent confusion due to time zone crossing. See the UAL4625 flight status page for this flight to view local times or setup timezone preferences in your user account.

Time Position Orientation Groundspeed Altitude Reporting Facility
EDT Latitude Longitude Course Direction KTS MPH feet Rate Location/Type
Mon 06:37:50 AM 44.8333 -63.5167 180° South 150 173 1,900  Level Moncton Center
Mon 06:38:50 AM 44.8333 -63.6000 270° West 190 219 3,700 1,700 Climbing Moncton Center
Mon 06:39:50 AM 44.8167 -63.6833 254° West 210 242 5,300 1,850 Climbing Moncton Center
Mon 06:40:50 AM 44.8000 -63.7833 257° West 250 288 7,400 2,100 Climbing Moncton Center
Mon 06:41:50 AM 44.8000 -63.8833 270° West 270 311 9,500 1,650 Climbing Moncton Center
Mon 06:42:50 AM 44.7833 -64.0000 259° West 290 334 10,700 1,100 Climbing Moncton Center
Mon 06:43:00 AM 44.7729 -64.3000 180° South  Level FlightAware Approximate
Mon 06:43:50 AM 44.7667 -64.1333 260° West 330 380 11,700  Level Moncton Center
Mon 06:44:50 AM 44.7500 -64.2833 261° West 340 391 13,400 1,550 Climbing Moncton Center
Mon 06:45:50 AM 44.7333 -64.4000 259° West 350 403 14,800 1,300 Climbing Moncton Center
Mon 06:46:50 AM 44.7167 -64.5333 260° West 350 403 16,000 1,150 Climbing Moncton Center
Mon 06:47:50 AM 44.7000 -64.6833 261° West 360 414 17,100 1,000 Climbing Moncton Center
Mon 06:48:50 AM 44.6833 -64.8167 260° West 360 414 18,000 1,050 Climbing Moncton Center
Mon 06:49:50 AM 44.6667 -64.9667 261° West 360 414 19,200 1,200 Climbing Moncton Center
Mon 06:50:50 AM 44.6500 -65.1000 260° West 370 426 20,400 1,250 Climbing Moncton Center
Mon 06:51:50 AM 44.6333 -65.2500 261° West 370 426 21,700 1,250 Climbing Moncton Center
Mon 06:52:50 AM 44.6167 -65.3833 260° West 370 426 22,900 1,150 Climbing Moncton Center
Mon 06:53:50 AM 44.6000 -65.5167 260° West 370 426 24,000 1,200 Climbing Moncton Center
Mon 06:54:50 AM 44.5833 -65.6667 261° West 370 426 25,300 1,200 Climbing Moncton Center
Mon 06:55:50 AM 44.5667 -65.8000 260° West 370 426 26,400 1,200 Climbing Moncton Center
Mon 06:56:50 AM 44.5500 -65.9667 262° West 370 426 27,700 1,150 Climbing Moncton Center
Mon 06:57:50 AM 44.5333 -66.0833 259° West 360 414 28,700 800 Climbing Moncton Center
Mon 06:58:50 AM 44.5000 -66.2500 254° West 370 426 29,300 550 Climbing Moncton Center
Mon 06:59:50 AM 44.4833 -66.3833 260° West 380 437 29,800 550 Climbing Moncton Center
Mon 07:00:50 AM 44.4667 -66.5500 262° West 400 460 30,400 650 Climbing Moncton Center
Mon 07:01:50 AM 44.4500 -66.7000 261° West 410 472 31,100 700 Climbing Moncton Center
Mon 07:02:50 AM 44.4333 -66.8500 261° West 410 472 31,800 700 Climbing Moncton Center
Mon 07:03:50 AM 44.4000 -67.0167 254° West 420 483 32,500 700 Climbing Moncton Center
Mon 07:04:50 AM 44.3667 -67.1833 254° West 430 495 33,200 700 Climbing Moncton Center
Mon 07:05:50 AM 44.3500 -67.3500 262° West 430 495 33,900 688 Climbing Moncton Center
Mon 07:06:26 AM 44.3469 -67.4486 268° West 433 498 34,300 688 Climbing Boston Center
Mon 07:07:26 AM 44.3225 -67.6103 258° West 433 498 35,000 750 Climbing Boston Center
Mon 07:08:26 AM 44.2958 -67.7750 257° West 438 504 35,800 500 Climbing Boston Center
Mon 07:09:26 AM 44.2711 -67.9367 258° West 438 504 36,000 100 Climbing Boston Center
Mon 07:10:26 AM 44.2422 -68.1069 257° West 443 510 36,000  Level Boston Center
Mon 07:11:26 AM 44.2133 -68.2831 257° West 454 522 36,000  Level Boston Center
Mon 07:12:26 AM 44.1842 -68.4589 257° West 459 528 36,000  Level Boston Center
Mon 07:13:26 AM 44.1603 -68.6197 258° West 464 534 36,000  Level Boston Center
Mon 07:14:26 AM 44.1286 -68.7983 256° West 470 541 36,000  Level Boston Center
Mon 07:15:27 AM 44.0986 -68.9764 257° West 475 547 36,000  Level Boston Center
Mon 07:16:26 AM 44.0683 -69.1517 257° West 475 547 36,000  Level Boston Center
Mon 07:17:26 AM 44.0378 -69.3267 256° West 475 547 36,000  Level Boston Center
Mon 07:18:26 AM 44.0092 -69.5014 257° West 470 541 36,000  Level Boston Center
Mon 07:19:26 AM 43.9758 -69.6703 255° West 465 535 36,000  Level Boston Center
Mon 07:20:26 AM 43.9447 -69.8536 257° West 458 527 36,000  Level Boston Center
Mon 07:21:26 AM 43.9131 -70.0250 256° West 453 521 36,000  Level Boston Center
Mon 07:22:26 AM 43.8928 -70.1583 258° West 461 531 36,000  Level Boston Center
Mon 07:23:26 AM 43.8508 -70.3672 255° West 461 531 36,000  Level Boston Center
Mon 07:24:26 AM 43.8164 -70.5381 254° West 456 525 36,000  Level Boston Center
Mon 07:25:26 AM 43.7878 -70.7058 257° West 456 525 36,000  Level Boston Center
Mon 07:26:26 AM 43.7547 -70.8678 254° West 451 519 36,000  Level Boston Center
Mon 07:27:26 AM 43.7233 -71.0325 255° West 451 519 36,000  Level Boston Center
Mon 07:28:26 AM 43.6919 -71.1911 255° West 446 513 36,000  Level Boston Center
Mon 07:29:26 AM 43.6644 -71.3553 257° West 440 506 36,000  Level Boston Center
Mon 07:30:26 AM 43.6325 -71.5164 255° West 435 501 36,000  Level Boston Center
Mon 07:31:26 AM 43.6003 -71.6775 255° West 435 501 36,000  Level Boston Center
Mon 07:32:26 AM 43.5681 -71.8411 255° West 435 501 36,000  Level Boston Center
Mon 07:33:26 AM 43.5394 -71.9903 255° West 444 511 36,000  Level Boston Center
Mon 07:34:26 AM 43.5086 -72.1508 255° West 444 511 36,000  Level Boston Center
Mon 07:35:26 AM 43.4736 -72.3114 253° West 444 511 36,000  Level Boston Center
Mon 07:36:26 AM 43.4425 -72.4686 255° West 437 503 36,000 -50 Level Boston Center
Mon 07:37:26 AM 43.4111 -72.6231 254° West 432 497 35,900 -1,000 Descending Boston Center
Mon 07:38:26 AM 43.3794 -72.7800 255° West 432 497 34,000 -1,950 Descending Boston Center
Mon 07:39:26 AM 43.3456 -72.9425 254° West 438 504 32,000 -1,950 Descending Boston Center
Mon 07:40:26 AM 43.3114 -73.1019 254° West 438 504 30,100 -1,950 Descending Boston Center
Mon 07:41:26 AM 43.2747 -73.2642 253° West 438 504 28,100 -2,300 Descending Boston Center
Mon 07:42:26 AM 43.2339 -73.4431 253° West 443 510 25,500 -2,550 Descending Boston Center
Mon 07:43:26 AM 43.1719 -73.5958 241° Southwest 449 517 23,000 -2,450 Descending Boston Center
Mon 07:44:26 AM 43.0647 -73.6706 207° Southwest 437 503 20,600 -2,350 Descending Boston Center
Mon 07:45:26 AM 42.9603 -73.7111 196° South 416 479 18,300 -1,950 Descending Boston Center
Mon 07:46:26 AM 42.8575 -73.7628 200° South 411 473 16,700 -1,150 Descending Boston Center
Mon 07:47:26 AM 42.7506 -73.8058 196° South 406 467 16,000 -350 Descending Boston Center
Mon 07:48:26 AM 42.6481 -73.8542 199° South 406 467 16,000  Level Boston Center
Mon 07:49:26 AM 42.5286 -73.9022 197° South 412 474 16,000  Level Boston Center
Mon 07:50:26 AM 42.4236 -73.9506 199° South 402 463 16,000  Level Boston Center
Mon 07:51:26 AM 42.3189 -73.9956 198° South 407 468 16,000  Level Boston Center
Mon 07:52:26 AM 42.2139 -74.0436 199° South 402 463 16,000  Level Boston Center
Mon 07:53:28 AM 42.1197 -74.0858 198° South 402 463 16,000  Level Boston Center
Mon 07:54:26 AM 42.0125 -74.1333 198° South 407 468 16,000  Level Boston Center
Mon 07:55:26 AM 41.8972 -74.1833 198° South 407 468 16,000 -850 Level Boston Center
Mon 07:56:26 AM 41.8028 -74.2225 197° South 402 463 14,300 -2,150 Descending Boston Center
Mon 07:57:26 AM 41.6917 -74.2694 198° South 391 450 11,700 -1,900 Descending Boston Center
Mon 07:58:26 AM 41.6139 -74.3061 199° South 357 411 10,500 -1,119 Descending Boston Center
Mon 08:00:00 AM 41.4459 -74.3661 196° South  Level FlightAware Approximate
Mon 08:01:38 AM 41.3833 -74.4167 180° South 268 308 7,000  Level New York TRACON
Mon 08:02:38 AM 41.3167 -74.4333 191° South 261 300 7,000  Level New York TRACON
Mon 08:04:00 AM 41.1727 -74.3718 203° Southwest  Level Estimated
Mon 08:05:38 AM 41.1000 -74.5167 78° East 255 293 7,000  Level New York TRACON
Mon 08:07:00 AM 40.6930 -74.5500 180° South  Level FlightAware Approximate
Mon 08:07:00 AM 40.9494 -74.5344 185° South  Level FlightAware Approximate
Mon 08:07:32 AM 40.9833 -74.5500 185° South 250 288 6,000  Level New York TRACON
Mon 08:08:32 AM 40.9167 -74.5667 191° South 257 296 6,000  Level New York TRACON
Mon 08:09:26 AM 40.8500 -74.5500 169° South 254 292 6,000  Level New York TRACON
Mon 08:11:00 AM 40.6925 -74.1687 78° East  Level Estimated
Mon 08:11:00 AM 40.7672 -74.3489 118° Southeast  Level Estimated
Mon 08:11:26 AM 40.7167 -74.5167 118° Southeast 253 291 6,000  Level New York TRACON
Mon 08:12:20 AM 40.6500 -74.4833 159° South 253 291 5,100 -632 Descending New York TRACON
Mon 08:13:20 AM 40.5833 -74.4500 159° South 254 292 4,800 -1,000 Descending New York TRACON
Mon 08:14:20 AM 40.5500 -74.3667 118° Southeast 251 289 3,100 -1,000 Descending New York TRACON
Mon 08:15:20 AM 40.5333 -74.3000 108° East 237 273 2,800 -621 Descending New York TRACON
Mon 08:17:14 AM 40.6333 -74.2000 37° Northeast 181 208 1,300 -786 Descending New York TRACON
Mon 08:18:08 AM 40.6500 -74.1833 37° Northeast 133 153 600 -778 Descending New York TRACON
Mon 08:20:00 AM 40.6833 -74.1667 78° East  Level FlightAware Approximate
Mon 08:27:00 AM 40.6925 -74.1687 78° East  Level Estimated

Login

Don't have an account? Register now (free) for customized features, flight alerts, and more!